createdAt,value
2022-09-09T00:02:02.253Z,15.26
2022-09-09T00:04:35.959Z,15.22
2022-09-09T00:07:05.788Z,15.20
2022-09-09T00:09:55.761Z,15.17
2022-09-09T00:12:46.713Z,15.19
2022-09-09T00:15:20.345Z,15.23
2022-09-09T00:17:52.098Z,15.31
2022-09-09T00:20:24.669Z,15.35
2022-09-09T00:23:00.241Z,15.33
2022-09-09T00:25:38.491Z,15.36
2022-09-09T00:28:20.187Z,15.43
2022-09-09T00:30:49.398Z,15.44
2022-09-09T00:33:19.672Z,15.48
2022-09-09T00:35:49.762Z,15.56
2022-09-09T00:38:24.800Z,15.58
2022-09-09T00:40:54.101Z,15.58
2022-09-09T00:43:27.974Z,15.59
2022-09-09T00:45:57.454Z,15.63
2022-09-09T00:48:37.212Z,15.66
2022-09-09T00:51:22.331Z,15.69
2022-09-09T00:54:13.505Z,15.74
2022-09-09T00:56:52.278Z,15.76
2022-09-09T00:59:43.989Z,15.79
2022-09-09T01:02:36.626Z,15.78
2022-09-09T01:05:12.271Z,15.80
2022-09-09T01:07:41.215Z,15.79
2022-09-09T01:10:34.694Z,15.79
2022-09-09T01:13:06.614Z,15.82
2022-09-09T01:15:35.142Z,15.83
2022-09-09T01:18:11.051Z,15.82
2022-09-09T01:20:56.464Z,15.84
2022-09-09T01:23:40.943Z,15.86
2022-09-09T01:26:19.084Z,15.90
2022-09-09T01:28:48.467Z,15.91
2022-09-09T01:31:22.898Z,15.93
2022-09-09T01:33:49.723Z,15.93
2022-09-09T01:36:27.385Z,15.93
2022-09-09T01:38:54.527Z,15.94
2022-09-09T01:41:21.558Z,15.98
2022-09-09T01:43:49.143Z,15.98
2022-09-09T01:46:16.121Z,15.97
2022-09-09T01:48:44.029Z,16.00
2022-09-09T01:51:11.521Z,15.98
2022-09-09T01:53:40.561Z,16.00
2022-09-09T01:56:12.840Z,16.02
2022-09-09T01:58:59.283Z,16.05
2022-09-09T02:01:57.493Z,16.03
2022-09-09T02:04:48.709Z,16.01
2022-09-09T02:07:21.900Z,16.04
2022-09-09T02:09:57.214Z,16.04
2022-09-09T02:12:31.051Z,16.03
2022-09-09T02:15:05.006Z,16.03
2022-09-09T02:17:37.092Z,16.01
2022-09-09T02:20:13.882Z,16.01
2022-09-09T02:22:44.922Z,15.96
2022-09-09T02:25:16.066Z,15.94
2022-09-09T02:27:46.591Z,15.92
2022-09-09T02:30:13.964Z,15.92
2022-09-09T02:32:43.846Z,15.87
2022-09-09T02:35:15.340Z,15.83
2022-09-09T02:37:44.830Z,15.79
2022-09-09T02:40:13.177Z,15.77
2022-09-09T02:42:58.763Z,15.76
2022-09-09T02:45:29.386Z,15.74
2022-09-09T02:48:17.875Z,15.71
2022-09-09T02:50:58.826Z,15.69
2022-09-09T02:53:35.362Z,15.66
2022-09-09T02:56:17.382Z,15.60
2022-09-09T02:58:44.121Z,15.57
2022-09-09T03:01:15.510Z,15.53
2022-09-09T03:03:43.430Z,15.41
2022-09-09T03:06:11.187Z,15.44
2022-09-09T03:08:37.706Z,15.36
2022-09-09T03:11:04.649Z,15.31
2022-09-09T03:13:31.228Z,15.25
2022-09-09T03:16:00.568Z,15.16
2022-09-09T03:18:26.981Z,15.10
2022-09-09T03:20:54.993Z,15.02
2022-09-09T03:23:22.634Z,15.07
2022-09-09T03:25:50.516Z,15.00
2022-09-09T03:28:17.151Z,14.97
2022-09-09T03:30:43.666Z,14.95
2022-09-09T03:33:10.140Z,14.93
2022-09-09T03:35:39.000Z,14.93
2022-09-09T03:38:05.400Z,14.91
2022-09-09T03:40:32.107Z,14.88
2022-09-09T03:42:58.496Z,14.88
2022-09-09T03:45:24.854Z,14.86
2022-09-09T03:47:51.248Z,14.87
2022-09-09T03:50:19.430Z,14.92
2022-09-09T03:52:49.403Z,14.95
2022-09-09T03:55:15.772Z,15.00
2022-09-09T03:57:49.923Z,15.01
2022-09-09T04:00:16.455Z,15.08
2022-09-09T04:02:44.483Z,15.09
2022-09-09T04:05:10.962Z,15.16
2022-09-09T04:07:42.254Z,15.21
2022-09-09T04:10:11.533Z,15.23
2022-09-09T04:12:37.939Z,15.27
2022-09-09T04:15:07.745Z,15.33
2022-09-09T04:17:34.188Z,15.38
2022-09-09T04:20:02.097Z,15.39
2022-09-09T04:22:28.458Z,15.43
2022-09-09T04:24:54.939Z,15.47
2022-09-09T04:27:21.335Z,15.50
2022-09-09T04:29:50.021Z,15.54
2022-09-09T04:32:16.453Z,15.56
2022-09-09T04:34:45.932Z,15.55
2022-09-09T04:37:12.282Z,15.57
2022-09-09T04:39:38.666Z,15.57
2022-09-09T04:42:05.312Z,15.55
2022-09-09T04:44:31.659Z,15.55
2022-09-09T04:46:58.767Z,15.54
2022-09-09T04:49:25.202Z,15.56
2022-09-09T04:51:54.042Z,15.53
2022-09-09T04:54:20.438Z,15.55
2022-09-09T04:56:47.243Z,15.57
2022-09-09T04:59:13.627Z,15.62
2022-09-09T05:01:42.475Z,15.60
2022-09-09T05:04:09.910Z,15.60
2022-09-09T05:06:38.776Z,15.64
2022-09-09T05:09:05.204Z,15.66
2022-09-09T05:11:37.009Z,15.70
2022-09-09T05:14:04.024Z,15.72
2022-09-09T05:16:31.192Z,15.74
2022-09-09T05:18:58.309Z,15.75
2022-09-09T05:21:29.334Z,15.79
2022-09-09T05:23:58.777Z,15.82
2022-09-09T05:26:25.423Z,15.85
2022-09-09T05:28:54.431Z,15.85
2022-09-09T05:31:21.029Z,15.90
2022-09-09T05:33:49.165Z,15.94
2022-09-09T05:36:22.590Z,15.98
2022-09-09T05:38:51.897Z,16.00
2022-09-09T05:41:18.605Z,16.02
2022-09-09T05:43:46.377Z,16.11
2022-09-09T05:46:14.393Z,16.23
2022-09-09T05:48:47.170Z,16.29
2022-09-09T05:51:18.942Z,16.37
2022-09-09T05:53:46.574Z,16.40
2022-09-09T05:56:19.003Z,16.41
2022-09-09T05:58:47.835Z,16.41
2022-09-09T06:01:15.335Z,16.39
2022-09-09T06:03:43.300Z,16.48
2022-09-09T06:06:12.146Z,16.49
2022-09-09T06:08:40.580Z,16.43
2022-09-09T06:11:09.872Z,16.43
2022-09-09T06:13:39.803Z,16.42
2022-09-09T06:16:09.092Z,16.56
2022-09-09T06:18:38.753Z,16.73
2022-09-09T06:21:07.807Z,16.88
2022-09-09T06:23:37.497Z,17.10
2022-09-09T06:26:06.594Z,17.23
2022-09-09T06:28:37.541Z,17.29
2022-09-09T06:31:10.285Z,17.29
2022-09-09T06:33:42.024Z,17.33
2022-09-09T06:36:13.643Z,17.34
2022-09-09T06:38:40.298Z,17.37
2022-09-09T06:41:06.796Z,17.40
2022-09-09T06:43:36.035Z,17.50
2022-09-09T06:46:16.825Z,17.66
2022-09-09T06:48:45.405Z,17.86
2022-09-09T06:51:14.903Z,18.03
2022-09-09T06:53:43.391Z,18.07
2022-09-09T06:56:17.866Z,18.05
2022-09-09T06:58:45.910Z,18.03
2022-09-09T07:01:14.560Z,18.05
2022-09-09T07:03:46.565Z,18.03
2022-09-09T07:06:18.129Z,17.96
2022-09-09T07:08:55.784Z,17.91
2022-09-09T07:11:24.736Z,17.94
2022-09-09T07:13:51.148Z,18.01
2022-09-09T07:16:19.596Z,18.37
2022-09-09T07:18:46.000Z,18.71
2022-09-09T07:21:15.799Z,19.17
2022-09-09T07:23:42.736Z,19.53
2022-09-09T07:26:15.474Z,19.64
2022-09-09T07:28:42.829Z,19.85
2022-09-09T07:31:17.515Z,20.17
2022-09-09T07:33:47.250Z,20.14
2022-09-09T07:36:19.055Z,20.08
2022-09-09T07:38:46.730Z,20.10
2022-09-09T07:41:19.313Z,20.06
2022-09-09T07:43:48.661Z,20.02
2022-09-09T07:46:17.202Z,19.88
2022-09-09T07:48:52.209Z,20.04
2022-09-09T07:51:25.950Z,19.79
2022-09-09T07:53:55.066Z,19.67
2022-09-09T07:56:24.602Z,19.66
2022-09-09T07:58:53.034Z,19.84
2022-09-09T08:01:40.623Z,19.81
2022-09-09T08:04:10.363Z,19.81
2022-09-09T08:06:39.486Z,19.95
2022-09-09T08:09:07.506Z,20.12
2022-09-09T08:11:38.625Z,20.18
2022-09-09T08:14:06.336Z,20.18
2022-09-09T08:16:37.436Z,20.24
2022-09-09T08:19:08.864Z,20.67
2022-09-09T08:21:37.673Z,21.38
2022-09-09T08:24:06.119Z,21.55
2022-09-09T08:26:40.839Z,21.34
2022-09-09T08:29:08.910Z,20.95
2022-09-09T08:31:38.401Z,20.50
2022-09-09T08:34:46.438Z,20.24
2022-09-09T08:37:13.193Z,19.92
2022-09-09T08:39:39.634Z,19.72
2022-09-09T08:42:12.809Z,19.79
2022-09-09T08:44:57.732Z,19.88
2022-09-09T08:47:54.795Z,19.84
2022-09-09T08:50:25.600Z,19.97
2022-09-09T08:53:09.248Z,20.13
2022-09-09T08:55:46.245Z,20.38
2022-09-09T08:58:19.891Z,20.81
2022-09-09T09:01:17.338Z,21.19
2022-09-09T09:04:03.621Z,21.21
2022-09-09T09:06:37.182Z,20.98
2022-09-09T09:09:13.486Z,21.06
2022-09-09T09:11:44.691Z,21.41
2022-09-09T09:14:19.888Z,21.48
2022-09-09T09:17:00.437Z,21.16
2022-09-09T09:19:29.431Z,21.06
2022-09-09T09:22:01.505Z,20.98
2022-09-09T09:24:43.342Z,21.34
2022-09-09T09:27:31.464Z,21.32
2022-09-09T09:33:33.746Z,21.96
2022-09-09T09:36:01.126Z,21.99
2022-09-09T09:41:15.607Z,22.44
2022-09-09T09:43:55.333Z,23.10
2022-09-09T09:46:26.645Z,23.31
2022-09-09T09:49:19.284Z,23.30
2022-09-09T09:51:45.877Z,22.73
2022-09-09T09:54:19.020Z,22.43
2022-09-09T09:56:46.329Z,21.95
2022-09-09T09:59:23.779Z,21.47
2022-09-09T10:02:27.380Z,20.86
2022-09-09T10:05:07.220Z,20.73
2022-09-09T10:07:34.240Z,20.54
2022-09-09T10:10:03.296Z,20.51
2022-09-09T10:12:48.293Z,20.60
2022-09-09T10:15:23.976Z,20.96
2022-09-09T10:18:05.574Z,21.41
2022-09-09T10:20:52.326Z,21.67
2022-09-09T10:23:41.210Z,21.73
2022-09-09T10:26:29.355Z,21.49
2022-09-09T10:29:17.943Z,21.49
2022-09-09T10:32:16.238Z,21.98
2022-09-09T10:35:03.730Z,22.19
2022-09-09T10:37:35.190Z,22.31
2022-09-09T10:40:15.792Z,22.36
2022-09-09T10:42:43.504Z,22.51
2022-09-09T10:45:19.726Z,22.37
2022-09-09T10:48:34.518Z,22.59
2022-09-09T10:51:18.967Z,23.07
2022-09-09T10:53:52.864Z,22.72
2022-09-09T10:56:24.602Z,22.88
2022-09-09T10:59:05.641Z,22.86
2022-09-09T11:01:54.862Z,23.03
2022-09-09T11:04:43.429Z,23.07
2022-09-09T11:07:25.359Z,23.10
2022-09-09T11:09:59.830Z,22.98
2022-09-09T11:12:29.779Z,23.23
2022-09-09T11:15:04.276Z,23.43
2022-09-09T11:17:50.424Z,23.55
2022-09-09T11:20:16.904Z,23.40
2022-09-09T11:22:45.617Z,23.36
2022-09-09T11:25:18.517Z,23.32
2022-09-09T11:27:53.085Z,23.31
2022-09-09T11:30:44.101Z,23.53
2022-09-09T11:33:30.614Z,23.57
2022-09-09T11:36:27.105Z,23.84
2022-09-09T11:39:11.458Z,24.07
2022-09-09T11:41:38.749Z,24.15
2022-09-09T11:44:13.699Z,24.36
2022-09-09T11:46:42.441Z,24.34
2022-09-09T11:49:33.893Z,24.61
2022-09-09T11:52:00.484Z,24.78
2022-09-09T11:54:45.561Z,24.62
2022-09-09T11:57:26.887Z,24.58
2022-09-09T11:59:53.740Z,24.56
2022-09-09T12:02:25.853Z,24.67
2022-09-09T12:05:13.182Z,24.38
2022-09-09T12:07:43.703Z,24.40
2022-09-09T12:10:28.146Z,24.17
2022-09-09T12:12:54.497Z,23.64
2022-09-09T12:15:29.029Z,23.26
2022-09-09T12:18:02.958Z,22.96
2022-09-09T12:21:14.885Z,22.95
2022-09-09T12:24:02.357Z,23.06
2022-09-09T12:26:34.473Z,22.80
2022-09-09T12:29:19.338Z,23.02
2022-09-09T12:32:03.101Z,23.46
2022-09-09T12:34:56.089Z,23.74
2022-09-09T12:37:53.706Z,23.83
2022-09-09T12:40:28.400Z,23.75
2022-09-09T12:43:00.069Z,23.92
2022-09-09T12:45:29.055Z,23.63
2022-09-09T12:48:09.499Z,23.98
2022-09-09T12:50:53.840Z,24.26
2022-09-09T12:53:27.683Z,24.32
2022-09-09T12:55:59.141Z,24.19
2022-09-09T12:58:26.034Z,24.18
2022-09-09T13:00:57.401Z,23.92
2022-09-09T13:03:25.942Z,23.87
2022-09-09T13:05:54.223Z,23.68
2022-09-09T13:08:21.644Z,23.00
2022-09-09T13:10:58.925Z,22.68
2022-09-09T13:13:40.588Z,22.32
2022-09-09T13:16:19.404Z,22.23
2022-09-09T13:18:46.039Z,21.96
2022-09-09T13:21:12.765Z,21.84
2022-09-09T13:23:39.492Z,21.27
2022-09-09T13:26:27.169Z,21.02
2022-09-09T13:28:57.458Z,20.49
2022-09-09T13:31:29.877Z,20.04
2022-09-09T13:33:58.802Z,19.30
2022-09-09T13:36:35.384Z,18.87
2022-09-09T13:39:07.510Z,18.48
2022-09-09T13:41:37.143Z,18.19
2022-09-09T13:44:05.464Z,18.30
2022-09-09T13:46:42.367Z,18.40
2022-09-09T13:49:11.034Z,18.36
2022-09-09T13:51:40.579Z,18.47
2022-09-09T13:54:11.083Z,18.69
2022-09-09T13:56:39.635Z,18.72
2022-09-09T13:59:10.556Z,18.68
2022-09-09T14:01:38.013Z,19.05
2022-09-09T14:04:07.425Z,19.18
2022-09-09T14:06:38.272Z,19.33
2022-09-09T14:09:10.972Z,19.37
2022-09-09T14:11:41.974Z,19.44
2022-09-09T14:14:10.849Z,19.50
2022-09-09T14:16:38.589Z,19.47
2022-09-09T14:19:05.359Z,19.37
2022-09-09T14:21:31.705Z,19.50
2022-09-09T14:23:58.995Z,19.66
2022-09-09T14:26:25.986Z,19.86
2022-09-09T14:28:56.300Z,19.77
2022-09-09T14:31:24.508Z,19.87
2022-09-09T14:33:51.807Z,19.95
2022-09-09T14:36:18.205Z,19.97
2022-09-09T14:38:44.706Z,20.02
2022-09-09T14:41:19.205Z,20.07
2022-09-09T14:43:48.198Z,20.11
2022-09-09T14:46:19.404Z,20.09
2022-09-09T14:48:46.437Z,19.99
2022-09-09T14:51:16.190Z,19.95
2022-09-09T14:53:43.730Z,19.89
2022-09-09T14:56:11.555Z,19.81
2022-09-09T14:58:39.106Z,19.79
2022-09-09T15:01:11.658Z,19.79
2022-09-09T15:03:39.128Z,19.78
2022-09-09T15:06:09.741Z,19.75
2022-09-09T15:08:41.779Z,19.73
2022-09-09T15:11:10.076Z,19.71
2022-09-09T15:13:38.295Z,19.69
2022-09-09T15:16:06.709Z,19.66
2022-09-09T15:18:34.195Z,19.61
2022-09-09T15:21:02.392Z,19.56
2022-09-09T15:23:28.732Z,19.49
2022-09-09T15:25:56.801Z,19.38
2022-09-09T15:28:23.406Z,19.00
2022-09-09T15:30:50.962Z,18.67
2022-09-09T15:33:17.332Z,17.23
2022-09-09T15:35:43.679Z,16.24
2022-09-09T15:38:14.066Z,16.14
2022-09-09T15:40:43.399Z,16.32
2022-09-09T15:44:29.513Z,16.78
2022-09-09T15:46:55.908Z,16.98
2022-09-09T15:49:28.212Z,17.11
2022-09-09T15:52:04.238Z,17.27
2022-09-09T15:54:35.761Z,17.27
2022-09-09T15:57:09.766Z,17.47
2022-09-09T15:59:36.194Z,17.63
2022-09-09T16:02:03.017Z,17.44
2022-09-09T16:04:32.335Z,17.25
2022-09-09T16:07:04.853Z,17.20
2022-09-09T16:09:32.311Z,17.30
2022-09-09T16:12:03.396Z,17.37
2022-09-09T16:14:34.889Z,17.40
2022-09-09T16:17:01.850Z,17.34
2022-09-09T16:19:30.596Z,17.38
2022-09-09T16:21:57.534Z,17.41
2022-09-09T16:24:26.657Z,17.29
2022-09-09T16:26:57.288Z,17.14
2022-09-09T16:29:24.778Z,17.14
2022-09-09T16:31:51.638Z,17.07
2022-09-09T16:34:19.502Z,16.98
2022-09-09T16:36:47.831Z,16.97
2022-09-09T16:39:16.735Z,16.94
2022-09-09T16:41:45.005Z,16.89
2022-09-09T16:44:13.517Z,16.86
2022-09-09T16:46:44.298Z,16.82
2022-09-09T16:49:15.287Z,16.85
2022-09-09T16:51:47.746Z,16.80
2022-09-09T16:54:16.312Z,16.70
2022-09-09T16:56:44.758Z,16.71
2022-09-09T16:59:14.197Z,16.75
2022-09-09T17:01:44.840Z,16.75
2022-09-09T17:04:21.164Z,16.72
2022-09-09T17:06:50.813Z,16.74
2022-09-09T17:09:18.376Z,16.75
2022-09-09T17:11:48.289Z,16.78
2022-09-09T17:14:17.204Z,16.88
2022-09-09T17:16:44.457Z,16.85
2022-09-09T17:19:13.684Z,16.83
2022-09-09T17:22:00.106Z,16.80
2022-09-09T17:24:30.474Z,16.81
2022-09-09T17:26:58.412Z,16.74
2022-09-09T17:29:25.836Z,16.73
2022-09-09T17:31:52.225Z,16.67
2022-09-09T17:34:18.596Z,16.61
2022-09-09T17:36:45.026Z,16.62
2022-09-09T17:39:11.351Z,16.51
2022-09-09T17:41:39.523Z,16.46
2022-09-09T17:46:42.307Z,16.34
2022-09-09T17:49:12.657Z,16.23
2022-09-09T17:51:39.863Z,16.21
2022-09-09T17:54:17.811Z,16.14
2022-09-09T17:56:47.918Z,16.06
2022-09-09T17:59:16.238Z,16.03
2022-09-09T18:01:45.717Z,15.95
2022-09-09T18:04:17.066Z,15.93
2022-09-09T18:06:46.243Z,15.87
2022-09-09T18:09:15.752Z,15.85
2022-09-09T18:11:48.285Z,15.80
2022-09-09T18:14:18.078Z,15.82
2022-09-09T18:16:45.222Z,15.76
2022-09-09T18:19:13.843Z,15.77
2022-09-09T18:21:42.048Z,15.74
2022-09-09T18:24:10.423Z,15.80
2022-09-09T18:26:37.765Z,15.88
2022-09-09T18:29:07.868Z,15.92
2022-09-09T18:31:35.539Z,15.93
2022-09-09T18:34:04.189Z,15.92
2022-09-09T18:36:36.330Z,15.91
2022-09-09T18:39:05.196Z,15.75
2022-09-09T18:41:39.069Z,15.63
2022-09-09T18:44:09.826Z,15.55
2022-09-09T18:46:39.812Z,15.50
2022-09-09T18:49:06.774Z,15.46
2022-09-09T18:51:35.324Z,15.42
2022-09-09T18:54:04.697Z,15.37
2022-09-09T18:56:31.725Z,15.35
2022-09-09T18:59:00.870Z,15.31
2022-09-09T19:01:28.921Z,15.26
2022-09-09T19:03:56.905Z,15.27
2022-09-09T19:06:27.228Z,15.17
2022-09-09T19:08:57.511Z,15.14
2022-09-09T19:11:27.821Z,15.12
2022-09-09T19:13:57.986Z,15.13
2022-09-09T19:16:29.474Z,15.16
2022-09-09T19:19:04.364Z,15.25
2022-09-09T19:21:33.741Z,15.20
2022-09-09T19:24:06.160Z,15.22
2022-09-09T19:26:37.029Z,15.28
2022-09-09T19:29:03.674Z,15.50
2022-09-09T19:31:30.518Z,15.55
2022-09-09T19:33:57.227Z,15.61
2022-09-09T19:36:27.602Z,15.62
2022-09-09T19:38:57.509Z,15.56
2022-09-09T19:41:26.038Z,15.58
2022-09-09T19:43:57.278Z,15.58
2022-09-09T19:46:23.827Z,15.53
2022-09-09T19:48:50.567Z,15.46
2022-09-09T19:51:20.231Z,15.59
2022-09-09T19:53:49.885Z,15.56
2022-09-09T19:56:18.252Z,15.52
2022-09-09T19:58:47.122Z,15.39
2022-09-09T20:01:13.545Z,15.31
2022-09-09T20:03:44.068Z,15.29
2022-09-09T20:06:14.522Z,15.30
2022-09-09T20:08:42.078Z,15.29
2022-09-09T20:11:10.729Z,15.30
2022-09-09T20:13:38.920Z,15.25
2022-09-09T20:16:11.550Z,15.25
2022-09-09T20:18:42.657Z,15.20
2022-09-09T20:21:12.300Z,15.21
2022-09-09T20:23:39.350Z,15.19
2022-09-09T20:26:09.234Z,15.21
2022-09-09T20:28:40.863Z,15.22
2022-09-09T20:31:14.460Z,15.24
2022-09-09T20:33:42.321Z,15.23
2022-09-09T20:36:17.903Z,15.26
2022-09-09T20:38:51.321Z,15.24
2022-09-09T20:41:21.722Z,15.26
2022-09-09T20:43:53.845Z,15.28
2022-09-09T20:46:22.524Z,15.24
2022-09-09T20:48:51.305Z,15.29
2022-09-09T20:51:20.263Z,15.30
2022-09-09T20:53:47.447Z,15.29
2022-09-09T20:56:20.309Z,15.26
2022-09-09T20:58:49.368Z,15.26
2022-09-09T21:01:21.069Z,15.26
2022-09-09T21:03:47.867Z,15.25
2022-09-09T21:06:14.977Z,15.32
2022-09-09T21:08:41.746Z,15.29
2022-09-09T21:11:08.163Z,15.31
2022-09-09T21:13:39.408Z,15.27
2022-09-09T21:16:08.755Z,15.28
2022-09-09T21:18:35.772Z,15.26
2022-09-09T21:21:03.793Z,15.26
2022-09-09T21:23:32.714Z,15.28
2022-09-09T21:26:03.628Z,15.28
2022-09-09T21:28:31.374Z,15.29
2022-09-09T21:30:58.054Z,15.30
2022-09-09T21:33:28.137Z,15.29
2022-09-09T21:36:01.935Z,15.31
2022-09-09T21:38:29.005Z,15.29
2022-09-09T21:40:57.745Z,15.28
2022-09-09T21:43:24.121Z,15.26
2022-09-09T21:45:50.841Z,15.25
2022-09-09T21:48:20.066Z,15.21
2022-09-09T21:50:48.053Z,15.21
2022-09-09T21:53:20.192Z,15.19
2022-09-09T21:55:48.525Z,15.16
2022-09-09T21:58:15.986Z,15.12
2022-09-09T22:00:45.394Z,15.10
2022-09-09T22:03:14.048Z,14.99
2022-09-09T22:05:45.172Z,14.92
2022-09-09T22:08:14.064Z,14.89
2022-09-09T22:10:42.681Z,14.81
2022-09-09T22:13:09.108Z,14.90
2022-09-09T22:15:36.564Z,14.83
2022-09-09T22:18:03.813Z,14.96
2022-09-09T22:20:39.585Z,14.86
2022-09-09T22:23:06.110Z,14.81
2022-09-09T22:25:38.652Z,14.80
2022-09-09T22:28:08.182Z,14.78
2022-09-09T22:30:34.625Z,14.75
2022-09-09T22:33:01.446Z,14.72
2022-09-09T22:35:30.194Z,14.74
2022-09-09T22:37:57.750Z,14.80
2022-09-09T22:40:24.375Z,14.84
2022-09-09T22:42:52.869Z,14.82
2022-09-09T22:45:20.791Z,14.82
2022-09-09T22:47:47.629Z,14.83
2022-09-09T22:50:14.208Z,14.85
2022-09-09T22:52:42.879Z,14.93
2022-09-09T22:55:09.477Z,14.90
2022-09-09T22:57:36.375Z,14.92
2022-09-09T23:00:08.766Z,14.90
2022-09-09T23:02:40.036Z,14.91
2022-09-09T23:05:08.556Z,14.90
2022-09-09T23:07:38.107Z,14.87
2022-09-09T23:10:11.022Z,14.83
2022-09-09T23:12:41.120Z,14.80
2022-09-09T23:15:10.359Z,14.81
2022-09-09T23:17:37.712Z,14.79
2022-09-09T23:20:06.264Z,14.79
2022-09-09T23:22:36.317Z,14.81
2022-09-09T23:25:05.869Z,14.79
2022-09-09T23:27:32.843Z,14.81
2022-09-09T23:29:59.273Z,14.82
2022-09-09T23:32:26.470Z,14.80
2022-09-09T23:34:52.919Z,14.80
2022-09-09T23:37:19.361Z,14.79
2022-09-09T23:39:45.800Z,14.79
2022-09-09T23:42:12.318Z,14.78
2022-09-09T23:44:41.964Z,14.77
2022-09-09T23:47:09.464Z,14.75
2022-09-09T23:49:39.069Z,14.67
2022-09-09T23:52:07.812Z,14.65
2022-09-09T23:54:37.225Z,14.62
2022-09-09T23:57:03.883Z,14.57
2022-09-09T23:59:31.485Z,14.54
